sensor_id;sensor_type;location;lat;lon;timestamp;pressure;altitude;pressure_sealevel;temperature
69415;BMP280;56608;43.530;-5.652;2023-03-16T00:00:28;100813.78;;;13.83
69415;BMP280;56608;43.530;-5.652;2023-03-16T00:01:30;100812.72;;;13.81
69415;BMP280;56608;43.530;-5.652;2023-03-16T00:02:31;100812.72;;;13.81
69415;BMP280;56608;43.530;-5.652;2023-03-16T00:03:31;100806.72;;;13.77
69415;BMP280;56608;43.530;-5.652;2023-03-16T00:04:32;100801.78;;;13.75
69415;BMP280;56608;43.530;-5.652;2023-03-16T00:05:36;100800.44;;;13.70
69415;BMP280;56608;43.530;-5.652;2023-03-16T00:06:37;100796.06;;;13.73
69415;BMP280;56608;43.530;-5.652;2023-03-16T00:07:37;100800.56;;;13.76
69415;BMP280;56608;43.530;-5.652;2023-03-16T00:08:37;100796.81;;;13.74
69415;BMP280;56608;43.530;-5.652;2023-03-16T00:09:38;100794.72;;;13.68
69415;BMP280;56608;43.530;-5.652;2023-03-16T00:10:42;100785.59;;;13.66
69415;BMP280;56608;43.530;-5.652;2023-03-16T00:11:48;100788.72;;;13.74
69415;BMP280;56608;43.530;-5.652;2023-03-16T00:12:48;100786.94;;;13.80
69415;BMP280;56608;43.530;-5.652;2023-03-16T00:13:49;100777.00;;;13.86
69415;BMP280;56608;43.530;-5.652;2023-03-16T00:14:49;100761.12;;;13.88
69415;BMP280;56608;43.530;-5.652;2023-03-16T00:15:56;100763.19;;;13.93
69415;BMP280;56608;43.530;-5.652;2023-03-16T00:16:56;100755.84;;;13.93
69415;BMP280;56608;43.530;-5.652;2023-03-16T00:17:57;100756.28;;;13.92
69415;BMP280;56608;43.530;-5.652;2023-03-16T00:18:57;100743.13;;;13.85
69415;BMP280;56608;43.530;-5.652;2023-03-16T00:19:58;100737.88;;;13.81
69415;BMP280;56608;43.530;-5.652;2023-03-16T00:20:59;100738.63;;;13.82
69415;BMP280;56608;43.530;-5.652;2023-03-16T00:22:02;100728.28;;;13.80
69415;BMP280;56608;43.530;-5.652;2023-03-16T00:23:03;100724.22;;;13.76
69415;BMP280;56608;43.530;-5.652;2023-03-16T00:24:03;100731.63;;;13.66
69415;BMP280;56608;43.530;-5.652;2023-03-16T00:25:03;100736.56;;;13.58
69415;BMP280;56608;43.530;-5.652;2023-03-16T00:26:05;100736.72;;;13.55
69415;BMP280;56608;43.530;-5.652;2023-03-16T00:27:05;100732.94;;;13.16
69415;BMP280;56608;43.530;-5.652;2023-03-16T00:28:06;100737.00;;;13.11
69415;BMP280;56608;43.530;-5.652;2023-03-16T00:29:06;100735.22;;;12.99
69415;BMP280;56608;43.530;-5.652;2023-03-16T00:30:07;100729.94;;;12.95
69415;BMP280;56608;43.530;-5.652;2023-03-16T00:31:08;100740.62;;;13.08
69415;BMP280;56608;43.530;-5.652;2023-03-16T00:32:11;100744.50;;;13.07
69415;BMP280;56608;43.530;-5.652;2023-03-16T00:33:11;100747.03;;;13.11
69415;BMP280;56608;43.530;-5.652;2023-03-16T00:34:11;100737.44;;;13.10
69415;BMP280;56608;43.530;-5.652;2023-03-16T00:35:12;100736.56;;;13.04
69415;BMP280;56608;43.530;-5.652;2023-03-16T00:36:12;100739.88;;;13.08
69415;BMP280;56608;43.530;-5.652;2023-03-16T00:37:14;100743.16;;;13.12
69415;BMP280;56608;43.530;-5.652;2023-03-16T00:38:18;100739.56;;;13.15
69415;BMP280;56608;43.530;-5.652;2023-03-16T00:39:18;100741.06;;;13.16
69415;BMP280;56608;43.530;-5.652;2023-03-16T00:40:19;100739.25;;;13.13
69415;BMP280;56608;43.530;-5.652;2023-03-16T00:41:19;100736.88;;;13.15
69415;BMP280;56608;43.530;-5.652;2023-03-16T00:42:22;100739.56;;;13.15
69415;BMP280;56608;43.530;-5.652;2023-03-16T00:43:26;100732.94;;;13.16
69415;BMP280;56608;43.530;-5.652;2023-03-16T00:44:26;100733.72;;;13.16
69415;BMP280;56608;43.530;-5.652;2023-03-16T00:45:27;100731.91;;;13.22
69415;BMP280;56608;43.530;-5.652;2023-03-16T00:46:27;100737.91;;;13.17
69415;BMP280;56608;43.530;-5.652;2023-03-16T00:47:28;100733.09;;;13.21
69415;BMP280;56608;43.530;-5.652;2023-03-16T00:48:29;100733.84;;;13.22
69415;BMP280;56608;43.530;-5.652;2023-03-16T00:49:34;100731.91;;;13.22
69415;BMP280;56608;43.530;-5.652;2023-03-16T00:50:34;100733.41;;;13.23
69415;BMP280;56608;43.530;-5.652;2023-03-16T00:51:35;100723.97;;;13.28
69415;BMP280;56608;43.530;-5.652;2023-03-16T00:52:35;100711.53;;;13.30
69415;BMP280;56608;43.530;-5.652;2023-03-16T00:53:35;100714.56;;;13.32
69415;BMP280;56608;43.530;-5.652;2023-03-16T00:54:36;100714.09;;;13.34
69415;BMP280;56608;43.530;-5.652;2023-03-16T00:55:36;100713.06;;;13.31
69415;BMP280;56608;43.530;-5.652;2023-03-16T00:56:37;100710.22;;;13.26
69415;BMP280;56608;43.530;-5.652;2023-03-16T00:57:37;100709.28;;;13.29
69415;BMP280;56608;43.530;-5.652;2023-03-16T00:58:38;100715.00;;;13.31
69415;BMP280;56608;43.530;-5.652;2023-03-16T00:59:39;100720.38;;;13.31
69415;BMP280;56608;43.530;-5.652;2023-03-16T01:00:40;100715.56;;;13.35
69415;BMP280;56608;43.530;-5.652;2023-03-16T01:01:40;100711.53;;;13.30
69415;BMP280;56608;43.530;-5.652;2023-03-16T01:02:41;100704.66;;;13.29
69415;BMP280;56608;43.530;-5.652;2023-03-16T01:03:41;100700.00;;;13.21
69415;BMP280;56608;43.530;-5.652;2023-03-16T01:04:42;100701.06;;;13.14
69415;BMP280;56608;43.530;-5.652;2023-03-16T01:05:42;100690.72;;;13.13
69415;BMP280;56608;43.530;-5.652;2023-03-16T01:06:43;100689.81;;;13.07
69415;BMP280;56608;43.530;-5.652;2023-03-16T01:07:43;100683.22;;;13.08
69415;BMP280;56608;43.530;-5.652;2023-03-16T01:08:44;100693.41;;;13.04
69415;BMP280;56608;43.530;-5.652;2023-03-16T01:09:44;100695.47;;;12.90
69415;BMP280;56608;43.530;-5.652;2023-03-16T01:10:44;100688.09;;;12.64
69415;BMP280;56608;43.530;-5.652;2023-03-16T01:11:45;100689.69;;;12.43
69415;BMP280;56608;43.530;-5.652;2023-03-16T01:12:47;100690.25;;;12.29
69415;BMP280;56608;43.530;-5.652;2023-03-16T01:13:48;100686.66;;;12.41
69415;BMP280;56608;43.530;-5.652;2023-03-16T01:14:49;100694.75;;;12.41
69415;BMP280;56608;43.530;-5.652;2023-03-16T01:15:50;100690.28;;;12.38
69415;BMP280;56608;43.530;-5.652;2023-03-16T01:16:50;100686.66;;;12.41
69415;BMP280;56608;43.530;-5.652;2023-03-16T01:17:50;100692.97;;;12.38
69415;BMP280;56608;43.530;-5.652;2023-03-16T01:18:51;100698.34;;;12.38
69415;BMP280;56608;43.530;-5.652;2023-03-16T01:19:51;100695.22;;;12.39
69415;BMP280;56608;43.530;-5.652;2023-03-16T01:20:52;100691.47;;;12.37
69415;BMP280;56608;43.530;-5.652;2023-03-16T01:21:52;100681.78;;;12.48
69415;BMP280;56608;43.530;-5.652;2023-03-16T01:22:52;100677.13;;;12.40
69415;BMP280;56608;43.530;-5.652;2023-03-16T01:23:53;100672.44;;;12.31
69415;BMP280;56608;43.530;-5.652;2023-03-16T01:24:53;100662.16;;;12.39
69415;BMP280;56608;43.530;-5.652;2023-03-16T01:25:54;100662.16;;;12.48
69415;BMP280;56608;43.530;-5.652;2023-03-16T01:26:55;100664.13;;;12.47
69415;BMP280;56608;43.530;-5.652;2023-03-16T01:27:56;100661.84;;;12.46
69415;BMP280;56608;43.530;-5.652;2023-03-16T01:28:57;100675.19;;;12.49
69415;BMP280;56608;43.530;-5.652;2023-03-16T01:29:57;100671.00;;;12.48
69415;BMP280;56608;43.530;-5.652;2023-03-16T01:30:58;100676.38;;;12.39
69415;BMP280;56608;43.530;-5.652;2023-03-16T01:31:59;100691.47;;;12.37
69415;BMP280;56608;43.530;-5.652;2023-03-16T01:33:00;100697.13;;;12.30
69415;BMP280;56608;43.530;-5.652;2023-03-16T01:34:01;100695.63;;;12.29
69415;BMP280;56608;43.530;-5.652;2023-03-16T01:35:03;100690.87;;;12.33
69415;BMP280;56608;43.530;-5.652;2023-03-16T01:36:05;100692.38;;;12.43
69415;BMP280;56608;43.530;-5.652;2023-03-16T01:37:06;100693.56;;;12.42
69415;BMP280;56608;43.530;-5.652;2023-03-16T01:38:06;100691.03;;;12.38
69415;BMP280;56608;43.530;-5.652;2023-03-16T01:39:06;100689.38;;;12.32
69415;BMP280;56608;43.530;-5.652;2023-03-16T01:40:07;100685.47;;;12.33
69415;BMP280;56608;43.530;-5.652;2023-03-16T01:41:08;100679.19;;;12.36
69415;BMP280;56608;43.530;-5.652;2023-03-16T01:42:08;100678.56;;;12.23
69415;BMP280;56608;43.530;-5.652;2023-03-16T01:43:09;100679.44;;;12.19
69415;BMP280;56608;43.530;-5.652;2023-03-16T01:44:13;100678.97;;;12.21
69415;BMP280;56608;43.530;-5.652;2023-03-16T01:46:33;100675.28;;;12.28
69415;BMP280;56608;43.530;-5.652;2023-03-16T01:47:34;100667.78;;;12.23
69415;BMP280;56608;43.530;-5.652;2023-03-16T01:49:37;100657.16;;;12.28
69415;BMP280;56608;43.530;-5.652;2023-03-16T01:50:37;100648.06;;;12.35
69415;BMP280;56608;43.530;-5.652;2023-03-16T01:52:38;100650.47;;;12.33
69415;BMP280;56608;43.530;-5.652;2023-03-16T01:53:39;100644.44;;;12.29
69415;BMP280;56608;43.530;-5.652;2023-03-16T01:54:50;100644.41;;;12.19
69415;BMP280;56608;43.530;-5.652;2023-03-16T01:55:52;100654.56;;;12.15
69415;BMP280;56608;43.530;-5.652;2023-03-16T01:58:00;100653.03;;;12.05
69415;BMP280;56608;43.530;-5.652;2023-03-16T01:59:01;100654.53;;;11.97
69415;BMP280;56608;43.530;-5.652;2023-03-16T02:00:08;100649.97;;;11.94
69415;BMP280;56608;43.530;-5.652;2023-03-16T02:01:10;100653.56;;;11.91
69415;BMP280;56608;43.530;-5.652;2023-03-16T02:02:12;100658.66;;;11.89
69415;BMP280;56608;43.530;-5.652;2023-03-16T02:03:14;100661.78;;;11.88
69415;BMP280;56608;43.530;-5.652;2023-03-16T02:04:17;100665.06;;;11.82
69415;BMP280;56608;43.530;-5.652;2023-03-16T02:05:23;100665.34;;;11.85
69415;BMP280;56608;43.530;-5.652;2023-03-16T02:06:24;100657.47;;;11.90
69415;BMP280;56608;43.530;-5.652;2023-03-16T02:07:26;100647.47;;;12.00
69415;BMP280;56608;43.530;-5.652;2023-03-16T02:08:27;100638.09;;;12.13
69415;BMP280;56608;43.530;-5.652;2023-03-16T02:09:28;100632.03;;;12.22
69415;BMP280;56608;43.530;-5.652;2023-03-16T02:10:28;100618.88;;;12.24
69415;BMP280;56608;43.530;-5.652;2023-03-16T02:11:28;100610.34;;;12.26
69415;BMP280;56608;43.530;-5.652;2023-03-16T02:12:29;100622.59;;;12.27
69415;BMP280;56608;43.530;-5.652;2023-03-16T02:13:29;100629.28;;;12.13
69415;BMP280;56608;43.530;-5.652;2023-03-16T02:14:35;100627.59;;;11.97
69415;BMP280;56608;43.530;-5.652;2023-03-16T02:15:36;100626.94;;;11.93
69415;BMP280;56608;43.530;-5.652;2023-03-16T02:16:36;100627.53;;;11.88
69415;BMP280;56608;43.530;-5.652;2023-03-16T02:17:37;100628.72;;;11.87
69415;BMP280;56608;43.530;-5.652;2023-03-16T02:18:37;100628.41;;;11.76
69415;BMP280;56608;43.530;-5.652;2023-03-16T02:19:52;100626.69;;;11.69
69415;BMP280;56608;43.530;-5.652;2023-03-16T02:21:13;100625.94;;;11.69
69415;BMP280;56608;43.530;-5.652;2023-03-16T02:22:16;100635.50;;;11.70
69415;BMP280;56608;43.530;-5.652;2023-03-16T02:23:18;100622.38;;;11.72
69415;BMP280;56608;43.530;-5.652;2023-03-16T02:24:20;100622.38;;;11.72
69415;BMP280;56608;43.530;-5.652;2023-03-16T02:25:27;100617.00;;;11.72
69415;BMP280;56608;43.530;-5.652;2023-03-16T02:27:31;100618.19;;;11.71
69415;BMP280;56608;43.530;-5.652;2023-03-16T02:28:52;100609.78;;;11.69
69415;BMP280;56608;43.530;-5.652;2023-03-16T02:29:59;100613.13;;;11.73
69415;BMP280;56608;43.530;-5.652;2023-03-16T02:31:01;100608.28;;;11.68
69415;BMP280;56608;43.530;-5.652;2023-03-16T02:32:02;100605.47;;;11.71
69415;BMP280;56608;43.530;-5.652;2023-03-16T02:33:04;100609.38;;;11.70
69415;BMP280;56608;43.530;-5.652;2023-03-16T02:34:05;100610.75;;;11.75
69415;BMP280;56608;43.530;-5.652;2023-03-16T02:35:06;100613.44;;;11.75
69415;BMP280;56608;43.530;-5.652;2023-03-16T02:36:07;100612.50;;;11.69
69415;BMP280;56608;43.530;-5.652;2023-03-16T02:37:07;100617.13;;;11.68
69415;BMP280;56608;43.530;-5.652;2023-03-16T02:38:08;100612.25;;;11.76
69415;BMP280;56608;43.530;-5.652;2023-03-16T02:39:09;100602.69;;;11.84
69415;BMP280;56608;43.530;-5.652;2023-03-16T02:41:21;100599.13;;;11.87
69415;BMP280;56608;43.530;-5.652;2023-03-16T02:42:22;100600.94;;;11.90
69415;BMP280;56608;43.530;-5.652;2023-03-16T02:43:25;100590.75;;;11.94
69415;BMP280;56608;43.530;-5.652;2023-03-16T02:44:31;100587.66;;;11.96
69415;BMP280;56608;43.530;-5.652;2023-03-16T02:45:39;100592.97;;;11.87
69415;BMP280;56608;43.530;-5.652;2023-03-16T02:46:42;100596.41;;;11.87
69415;BMP280;56608;43.530;-5.652;2023-03-16T02:47:43;100600.56;;;11.79
69415;BMP280;56608;43.530;-5.652;2023-03-16T02:50:02;100595.19;;;11.79
69415;BMP280;56608;43.530;-5.652;2023-03-16T02:51:05;100598.31;;;11.77
69415;BMP280;56608;43.530;-5.652;2023-03-16T02:52:06;100594.88;;;11.77
69415;BMP280;56608;43.530;-5.652;2023-03-16T02:53:07;100597.28;;;11.75
69415;BMP280;56608;43.530;-5.652;2023-03-16T02:54:07;100594.44;;;11.78
69415;BMP280;56608;43.530;-5.652;2023-03-16T02:55:08;100588.94;;;11.82
69415;BMP280;56608;43.530;-5.652;2023-03-16T02:56:08;100584.47;;;11.88
69415;BMP280;56608;43.530;-5.652;2023-03-16T02:57:08;100589.41;;;11.90
69415;BMP280;56608;43.530;-5.652;2023-03-16T02:58:09;100580.16;;;11.91
69415;BMP280;56608;43.530;-5.652;2023-03-16T02:59:09;100585.38;;;11.94
69415;BMP280;56608;43.530;-5.652;2023-03-16T03:00:11;100579.25;;;11.94
69415;BMP280;56608;43.530;-5.652;2023-03-16T03:01:16;100577.75;;;11.93
69415;BMP280;56608;43.530;-5.652;2023-03-16T03:02:16;100571.50;;;11.96
69415;BMP280;56608;43.530;-5.652;2023-03-16T03:03:16;100579.16;;;11.97
69415;BMP280;56608;43.530;-5.652;2023-03-16T03:04:17;100580.94;;;12.00
69415;BMP280;56608;43.530;-5.652;2023-03-16T03:05:18;100577.38;;;12.03
69415;BMP280;56608;43.530;-5.652;2023-03-16T03:06:18;100579.44;;;12.08
69415;BMP280;56608;43.530;-5.652;2023-03-16T03:07:19;100572.56;;;12.07
69415;BMP280;56608;43.530;-5.652;2023-03-16T03:08:19;100577.81;;;12.11
69415;BMP280;56608;43.530;-5.652;2023-03-16T03:09:21;100573.47;;;12.13
69415;BMP280;56608;43.530;-5.652;2023-03-16T03:10:22;100573.19;;;12.11
69415;BMP280;56608;43.530;-5.652;2023-03-16T03:11:22;100574.38;;;12.10
69415;BMP280;56608;43.530;-5.652;2023-03-16T03:12:22;100572.13;;;12.09
69415;BMP280;56608;43.530;-5.652;2023-03-16T03:13:23;100572.87;;;12.09
69415;BMP280;56608;43.530;-5.652;2023-03-16T03:14:23;100567.94;;;12.08
69415;BMP280;56608;43.530;-5.652;2023-03-16T03:15:24;100565.69;;;12.06
69415;BMP280;56608;43.530;-5.652;2023-03-16T03:16:24;100562.34;;;11.93
69415;BMP280;56608;43.530;-5.652;2023-03-16T03:17:25;100566.78;;;11.78
69415;BMP280;56608;43.530;-5.652;2023-03-16T03:18:31;100560.41;;;11.63
69415;BMP280;56608;43.530;-5.652;2023-03-16T03:19:32;100555.59;;;11.49
69415;BMP280;56608;43.530;-5.652;2023-03-16T03:20:32;100556.16;;;11.43
69415;BMP280;56608;43.530;-5.652;2023-03-16T03:21:33;100565.59;;;11.48
69415;BMP280;56608;43.530;-5.652;2023-03-16T03:22:33;100559.50;;;11.57
69415;BMP280;56608;43.530;-5.652;2023-03-16T03:23:33;100564.50;;;11.67
69415;BMP280;56608;43.530;-5.652;2023-03-16T03:24:34;100551.53;;;11.75
69415;BMP280;56608;43.530;-5.652;2023-03-16T03:25:34;100555.53;;;11.70
69415;BMP280;56608;43.530;-5.652;2023-03-16T03:26:35;100551.31;;;11.60
69415;BMP280;56608;43.530;-5.652;2023-03-16T03:27:37;100556.34;;;11.49
69415;BMP280;56608;43.530;-5.652;2023-03-16T03:28:37;100550.84;;;11.53
69415;BMP280;56608;43.530;-5.652;2023-03-16T03:29:37;100549.06;;;11.59
69415;BMP280;56608;43.530;-5.652;2023-03-16T03:30:37;100545.34;;;11.65
69415;BMP280;56608;43.530;-5.652;2023-03-16T03:31:38;100539.53;;;11.67
69415;BMP280;56608;43.530;-5.652;2023-03-16T03:32:38;100540.91;;;11.71
69415;BMP280;56608;43.530;-5.652;2023-03-16T03:33:39;100532.19;;;11.67
69415;BMP280;56608;43.530;-5.652;2023-03-16T03:34:39;100537.91;;;11.69
69415;BMP280;56608;43.530;-5.652;2023-03-16T03:35:41;100544.03;;;11.70
69415;BMP280;56608;43.530;-5.652;2023-03-16T03:36:41;100542.72;;;11.74
69415;BMP280;56608;43.530;-5.652;2023-03-16T03:37:42;100545.94;;;11.60
69415;BMP280;56608;43.530;-5.652;2023-03-16T03:38:43;100549.78;;;11.50
69415;BMP280;56608;43.530;-5.652;2023-03-16T03:39:43;100546.06;;;11.57
69415;BMP280;56608;43.530;-5.652;2023-03-16T03:40:44;100541.44;;;11.57
69415;BMP280;56608;43.530;-5.652;2023-03-16T03:41:44;100541.00;;;11.59
69415;BMP280;56608;43.530;-5.652;2023-03-16T03:42:45;100539.66;;;11.63
69415;BMP280;56608;43.530;-5.652;2023-03-16T03:43:45;100534.25;;;11.63
69415;BMP280;56608;43.530;-5.652;2023-03-16T03:44:45;100532.75;;;11.62
69415;BMP280;56608;43.530;-5.652;2023-03-16T03:45:46;100531.44;;;11.67
69415;BMP280;56608;43.530;-5.652;2023-03-16T03:46:46;100537.28;;;11.65
69415;BMP280;56608;43.530;-5.652;2023-03-16T03:47:47;100537.72;;;11.64
69415;BMP280;56608;43.530;-5.652;2023-03-16T03:48:47;100546.00;;;11.48
69415;BMP280;56608;43.530;-5.652;2023-03-16T03:49:47;100549.84;;;11.37
69415;BMP280;56608;43.530;-5.652;2023-03-16T03:50:48;100548.47;;;11.33
69415;BMP280;56608;43.530;-5.652;2023-03-16T03:51:48;100543.09;;;11.33
69415;BMP280;56608;43.530;-5.652;2023-03-16T03:52:48;100537.53;;;11.27
69415;BMP280;56608;43.530;-5.652;2023-03-16T03:53:48;100545.00;;;11.23
69415;BMP280;56608;43.530;-5.652;2023-03-16T03:54:49;100542.66;;;11.34
69415;BMP280;56608;43.530;-5.652;2023-03-16T03:55:50;100549.84;;;11.37
69415;BMP280;56608;43.530;-5.652;2023-03-16T03:56:51;100544.25;;;11.23
69415;BMP280;56608;43.530;-5.652;2023-03-16T03:57:51;100548.78;;;11.13
69415;BMP280;56608;43.530;-5.652;2023-03-16T03:58:51;100549.09;;;11.15
69415;BMP280;56608;43.530;-5.652;2023-03-16T03:59:51;100559.41;;;11.17
69415;BMP280;56608;43.530;-5.652;2023-03-16T04:00:52;100562.75;;;11.21
69415;BMP280;56608;43.530;-5.652;2023-03-16T04:01:52;100554.25;;;11.22
69415;BMP280;56608;43.530;-5.652;2023-03-16T04:02:52;100553.84;;;11.33
69415;BMP280;56608;43.530;-5.652;2023-03-16T04:03:53;100547.44;;;11.39
69415;BMP280;56608;43.530;-5.652;2023-03-16T04:04:53;100546.56;;;11.42
69415;BMP280;56608;43.530;-5.652;2023-03-16T04:05:54;100537.34;;;11.43
69415;BMP280;56608;43.530;-5.652;2023-03-16T04:06:55;100539.34;;;11.30
69415;BMP280;56608;43.530;-5.652;2023-03-16T04:07:55;100534.41;;;11.29
69415;BMP280;56608;43.530;-5.652;2023-03-16T04:08:56;100537.91;;;11.38
69415;BMP280;56608;43.530;-5.652;2023-03-16T04:09:56;100541.19;;;11.42
69415;BMP280;56608;43.530;-5.652;2023-03-16T04:10:57;100539.38;;;11.39
69415;BMP280;56608;43.530;-5.652;2023-03-16T04:11:57;100539.84;;;11.38
69415;BMP280;56608;43.530;-5.652;2023-03-16T04:12:58;100537.44;;;11.40
69415;BMP280;56608;43.530;-5.652;2023-03-16T04:13:58;100536.41;;;11.37
69415;BMP280;56608;43.530;-5.652;2023-03-16T04:14:58;100536.84;;;11.36
69415;BMP280;56608;43.530;-5.652;2023-03-16T04:15:59;100534.53;;;11.25
69415;BMP280;56608;43.530;-5.652;2023-03-16T04:17:01;100535.87;;;11.21
69415;BMP280;56608;43.530;-5.652;2023-03-16T04:18:03;100528.56;;;11.21
69415;BMP280;56608;43.530;-5.652;2023-03-16T04:19:04;100525.66;;;11.16
69415;BMP280;56608;43.530;-5.652;2023-03-16T04:20:04;100531.41;;;11.05
69415;BMP280;56608;43.530;-5.652;2023-03-16T04:21:12;100523.66;;;11.07
69415;BMP280;56608;43.530;-5.652;2023-03-16T04:22:13;100525.19;;;11.08
69415;BMP280;56608;43.530;-5.652;2023-03-16T04:23:13;100517.12;;;11.08
69415;BMP280;56608;43.530;-5.652;2023-03-16T04:24:15;100517.84;;;11.08
69415;BMP280;56608;43.530;-5.652;2023-03-16T04:25:16;100518.59;;;11.09
69415;BMP280;56608;43.530;-5.652;2023-03-16T04:26:17;100519.03;;;11.07
69415;BMP280;56608;43.530;-5.652;2023-03-16T04:27:17;100514.84;;;11.06
69415;BMP280;56608;43.530;-5.652;2023-03-16T04:28:17;100517.84;;;11.08
69415;BMP280;56608;43.530;-5.652;2023-03-16T04:29:18;100519.09;;;10.95
69415;BMP280;56608;43.530;-5.652;2023-03-16T04:30:18;100520.34;;;10.81
69415;BMP280;56608;43.530;-5.652;2023-03-16T04:31:18;100517.09;;;10.86
69415;BMP280;56608;43.530;-5.652;2023-03-16T04:32:19;100523.47;;;10.80
69415;BMP280;56608;43.530;-5.652;2023-03-16T04:33:19;100515.09;;;10.78
69415;BMP280;56608;43.530;-5.652;2023-03-16T04:34:20;100515.16;;;10.87
69415;BMP280;56608;43.530;-5.652;2023-03-16T04:35:24;100509.47;;;10.85
69415;BMP280;56608;43.530;-5.652;2023-03-16T04:36:24;100516.97;;;10.90
69415;BMP280;56608;43.530;-5.652;2023-03-16T04:37:24;100514.84;;;10.85
69415;BMP280;56608;43.530;-5.652;2023-03-16T04:38:25;100507.97;;;10.84
69415;BMP280;56608;43.530;-5.652;2023-03-16T04:39:25;100511.84;;;10.83
69415;BMP280;56608;43.530;-5.652;2023-03-16T04:40:25;100505.72;;;10.82
69415;BMP280;56608;43.530;-5.652;2023-03-16T04:41:26;100502.03;;;10.89
69415;BMP280;56608;43.530;-5.652;2023-03-16T04:42:26;100500.03;;;11.02
69415;BMP280;56608;43.530;-5.652;2023-03-16T04:43:27;100498.59;;;11.10
69415;BMP280;56608;43.530;-5.652;2023-03-16T04:44:27;100490.25;;;11.17
69415;BMP280;56608;43.530;-5.652;2023-03-16T04:45:27;100497.47;;;11.20
69415;BMP280;56608;43.530;-5.652;2023-03-16T04:46:28;100488.22;;;11.21
69415;BMP280;56608;43.530;-5.652;2023-03-16T04:47:28;100493.44;;;11.25
69415;BMP280;56608;43.530;-5.652;2023-03-16T04:48:29;100482.84;;;11.21
69415;BMP280;56608;43.530;-5.652;2023-03-16T04:49:31;100484.03;;;11.20
69415;BMP280;56608;43.530;-5.652;2023-03-16T04:50:31;100478.06;;;11.25
69415;BMP280;56608;43.530;-5.652;2023-03-16T04:51:31;100474.19;;;11.26
69415;BMP280;56608;43.530;-5.652;2023-03-16T04:52:32;100465.56;;;11.31
69415;BMP280;56608;43.530;-5.652;2023-03-16T04:53:32;100467.03;;;11.23
69415;BMP280;56608;43.530;-5.652;2023-03-16T04:54:32;100463.72;;;11.19
69415;BMP280;56608;43.530;-5.652;2023-03-16T04:55:33;100456.19;;;11.14
69415;BMP280;56608;43.530;-5.652;2023-03-16T04:56:33;100455.66;;;11.19
69415;BMP280;56608;43.530;-5.652;2023-03-16T04:57:33;100456.50;;;11.16
69415;BMP280;56608;43.530;-5.652;2023-03-16T04:58:34;100454.91;;;11.19
69415;BMP280;56608;43.530;-5.652;2023-03-16T04:59:34;100457.47;;;11.22
69415;BMP280;56608;43.530;-5.652;2023-03-16T05:00:34;100451.03;;;11.20
69415;BMP280;56608;43.530;-5.652;2023-03-16T05:01:35;100454.47;;;11.20
69415;BMP280;56608;43.530;-5.652;2023-03-16T05:02:37;100450.59;;;11.21
69415;BMP280;56608;43.530;-5.652;2023-03-16T05:03:37;100452.38;;;11.24
69415;BMP280;56608;43.530;-5.652;2023-03-16T05:04:38;100454.19;;;11.27
69415;BMP280;56608;43.530;-5.652;2023-03-16T05:05:38;100447.19;;;11.30
69415;BMP280;56608;43.530;-5.652;2023-03-16T05:06:38;100448.38;;;11.29
69415;BMP280;56608;43.530;-5.652;2023-03-16T05:07:39;100449.09;;;11.20
69415;BMP280;56608;43.530;-5.652;2023-03-16T05:08:40;100462.72;;;11.04
69415;BMP280;56608;43.530;-5.652;2023-03-16T05:09:41;100440.97;;;10.89
69415;BMP280;56608;43.530;-5.652;2023-03-16T05:10:41;100440.53;;;10.91
69415;BMP280;56608;43.530;-5.652;2023-03-16T05:11:41;100447.53;;;10.88
69415;BMP280;56608;43.530;-5.652;2023-03-16T05:12:42;100431.72;;;10.90
69415;BMP280;56608;43.530;-5.652;2023-03-16T05:13:42;100438.91;;;10.93
69415;BMP280;56608;43.530;-5.652;2023-03-16T05:14:42;100438.28;;;10.89
69415;BMP280;56608;43.530;-5.652;2023-03-16T05:15:42;100432.88;;;10.80
69415;BMP280;56608;43.530;-5.652;2023-03-16T05:16:43;100437.00;;;10.72
69415;BMP280;56608;43.530;-5.652;2023-03-16T05:17:43;100437.00;;;10.72
69415;BMP280;56608;43.530;-5.652;2023-03-16T05:18:43;100434.97;;;10.85
69415;BMP280;56608;43.530;-5.652;2023-03-16T05:19:44;100425.81;;;10.95
69415;BMP280;56608;43.530;-5.652;2023-03-16T05:20:44;100423.59;;;11.03
69415;BMP280;56608;43.530;-5.652;2023-03-16T05:21:44;100421.81;;;11.09
69415;BMP280;56608;43.530;-5.652;2023-03-16T05:22:45;100432.75;;;11.15
69415;BMP280;56608;43.530;-5.652;2023-03-16T05:23:45;100442.34;;;10.94
69415;BMP280;56608;43.530;-5.652;2023-03-16T05:24:45;100432.66;;;10.96
69415;BMP280;56608;43.530;-5.652;2023-03-16T05:25:46;100431.97;;;11.05
69415;BMP280;56608;43.530;-5.652;2023-03-16T05:26:46;100432.25;;;10.98
69415;BMP280;56608;43.530;-5.652;2023-03-16T05:27:48;100433.75;;;10.99
69415;BMP280;56608;43.530;-5.652;2023-03-16T05:28:49;100434.03;;;11.01
69415;BMP280;56608;43.530;-5.652;2023-03-16T05:29:49;100437.63;;;10.98
69415;BMP280;56608;43.530;-5.652;2023-03-16T05:30:49;100428.38;;;10.99
69415;BMP280;56608;43.530;-5.652;2023-03-16T05:31:50;100431.34;;;11.01
69415;BMP280;56608;43.530;-5.652;2023-03-16T05:32:51;100428.38;;;10.99
69415;BMP280;56608;43.530;-5.652;2023-03-16T05:33:52;100423.59;;;11.03
69415;BMP280;56608;43.530;-5.652;2023-03-16T05:34:52;100424.06;;;11.11
69415;BMP280;56608;43.530;-5.652;2023-03-16T05:35:53;100426.91;;;11.16
69415;BMP280;56608;43.530;-5.652;2023-03-16T05:36:53;100429.94;;;11.18
69415;BMP280;56608;43.530;-5.652;2023-03-16T05:37:53;100421.00;;;11.21
69415;BMP280;56608;43.530;-5.652;2023-03-16T05:38:53;100420.72;;;11.28
69415;BMP280;56608;43.530;-5.652;2023-03-16T05:39:54;100427.59;;;11.29
69415;BMP280;56608;43.530;-5.652;2023-03-16T05:40:56;100423.13;;;11.35
69415;BMP280;56608;43.530;-5.652;2023-03-16T05:42:00;100427.63;;;11.38
69415;BMP280;56608;43.530;-5.652;2023-03-16T05:43:00;100424.94;;;11.38
69415;BMP280;56608;43.530;-5.652;2023-03-16T05:44:01;100422.97;;;11.39
69415;BMP280;56608;43.530;-5.652;2023-03-16T05:45:01;100420.59;;;11.41
69415;BMP280;56608;43.530;-5.652;2023-03-16T05:46:02;100423.50;;;11.47
69415;BMP280;56608;43.530;-5.652;2023-03-16T05:47:02;100408.84;;;11.48
69415;BMP280;56608;43.530;-5.652;2023-03-16T05:48:03;100406.91;;;11.48
69415;BMP280;56608;43.530;-5.652;2023-03-16T05:49:04;100415.59;;;11.52
69415;BMP280;56608;43.530;-5.652;2023-03-16T05:50:05;100424.22;;;11.47